Time;durP1;ratioP1;P1;durP2;ratioP2;P2;SDS_P1;SDS_P2;PMS_P1;PMS_P2;Temp;Humidity;BMP_temperature;BMP_pressure;BME280_temperature;BME280_humidity;BME280_pressure;Samples;Min_cycle;Max_cycle;Signal;HPM_P1;HPM_P2
2023/01/02 00:01:45;;;;;;;39.67;23.70;;;13.70;70.30;;;;;;4975063;28;20458;-83
2023/01/02 00:04:11;;;;;;;37.35;23.80;;;13.40;71.20;;;;;;4973957;28;20019;-80
2023/01/02 00:06:37;;;;;;;38.33;23.52;;;13.40;71.20;;;;;;4974376;28;20027;-81
2023/01/02 00:09:04;;;;;;;41.15;24.20;;;13.50;71.00;;;;;;4990768;28;20046;-79
2023/01/02 00:11:30;;;;;;;36.47;22.75;;;13.60;71.80;;;;;;4975764;28;20097;-83
2023/01/02 00:13:56;;;;;;;38.90;23.38;;;13.70;70.10;;;;;;4975599;28;20113;-80
2023/01/02 00:16:22;;;;;;;38.38;23.23;;;13.90;70.20;;;;;;4988576;28;20467;-79
2023/01/02 00:18:48;;;;;;;43.58;24.23;;;14.10;69.90;;;;;;4990740;28;20054;-84
2023/01/02 00:21:14;;;;;;;37.42;22.90;;;14.60;68.70;;;;;;4990667;28;20112;-79
2023/01/02 00:23:39;;;;;;;40.72;24.38;;;15.00;67.60;;;;;;4971794;28;20466;-79
2023/01/02 00:26:06;;;;;;;45.05;24.15;;;15.50;66.50;;;;;;4974140;28;20019;-80
2023/01/02 00:28:32;;;;;;;39.17;23.98;;;15.40;66.60;;;;;;4975402;28;20165;-82
2023/01/02 00:31:04;;;;;;;38.08;22.67;;;15.20;66.80;;;;;;4973913;28;20105;-78
2023/01/02 00:33:30;;;;;;;37.03;22.67;;;15.20;66.50;;;;;;4975510;28;20351;-80
2023/01/02 00:35:55;;;;;;;41.03;22.90;;;15.30;66.40;;;;;;4975436;28;20473;-82
2023/01/02 00:38:21;;;;;;;40.95;23.95;;;15.10;66.50;;;;;;4973717;28;20474;-81
2023/01/02 00:40:47;;;;;;;38.70;24.45;;;14.90;67.40;;;;;;4974611;28;20098;-82
2023/01/02 00:43:12;;;;;;;41.58;24.95;;;14.70;68.00;;;;;;4975528;28;20113;-82
2023/01/02 00:45:38;;;;;;;44.03;24.90;;;15.00;67.80;;;;;;4975042;28;20058;-81
2023/01/02 00:48:03;;;;;;;40.63;24.25;;;15.30;66.40;;;;;;4989476;28;20030;-79
2023/01/02 00:50:29;;;;;;;42.67;24.60;;;15.50;65.90;;;;;;4973466;28;20027;-80
2023/01/02 00:52:55;;;;;;;40.63;24.58;;;15.80;65.60;;;;;;4972028;28;20050;-81
2023/01/02 00:55:20;;;;;;;41.15;24.58;;;15.80;65.00;;;;;;4973139;28;20029;-83
2023/01/02 00:57:46;;;;;;;48.63;26.00;;;15.60;65.20;;;;;;4990232;28;20027;-80
2023/01/02 01:00:12;;;;;;;43.88;24.17;;;15.50;66.60;;;;;;4975145;28;20215;-81
2023/01/02 01:02:38;;;;;;;52.80;27.33;;;15.40;66.20;;;;;;4973164;28;20691;-81
2023/01/02 01:05:04;;;;;;;51.03;26.38;;;15.70;66.40;;;;;;4973787;28;20083;-81
2023/01/02 01:07:30;;;;;;;53.10;27.33;;;16.10;65.00;;;;;;4974825;28;20118;-80
2023/01/02 01:09:55;;;;;;;58.30;28.88;;;16.20;64.50;;;;;;4989726;28;20106;-80
2023/01/02 01:12:21;;;;;;;55.70;27.50;;;16.10;65.10;;;;;;4974462;28;20061;-80
2023/01/02 01:14:46;;;;;;;53.53;26.77;;;16.10;65.30;;;;;;4973554;28;20042;-79
2023/01/02 01:17:12;;;;;;;49.60;26.95;;;15.90;65.00;;;;;;4974697;28;20015;-80
2023/01/02 01:19:38;;;;;;;55.70;27.23;;;15.60;66.10;;;;;;4974214;28;20077;-81
2023/01/02 01:22:03;;;;;;;54.63;27.63;;;15.50;66.30;;;;;;4974493;28;20019;-80
2023/01/02 01:24:29;;;;;;;52.67;27.23;;;15.10;68.00;;;;;;4973201;28;20029;-81
2023/01/02 01:26:55;;;;;;;57.05;27.90;;;15.20;67.50;;;;;;4972519;28;20410;-81
2023/01/02 01:29:21;;;;;;;57.00;26.55;;;15.00;67.80;;;;;;4970577;28;20031;-80
2023/01/02 01:31:47;;;;;;;59.78;28.17;;;15.00;67.80;;;;;;4973862;28;20054;-81
2023/01/02 01:34:13;;;;;;;64.43;30.25;;;15.00;68.60;;;;;;4987542;28;20031;-81
2023/01/02 01:36:39;;;;;;;57.63;28.77;;;15.10;68.20;;;;;;4966823;28;20034;-80
2023/01/02 01:39:05;;;;;;;64.85;28.38;;;15.30;67.50;;;;;;4972426;28;20022;-81
2023/01/02 01:41:30;;;;;;;52.65;27.70;;;15.50;67.00;;;;;;4969931;28;20030;-81
2023/01/02 01:43:59;;;;;;;62.22;28.27;;;15.70;66.40;;;;;;4971039;28;20020;-82
2023/01/02 01:46:38;;;;;;;61.78;27.75;;;15.70;66.40;;;;;;4974402;28;20062;-81
2023/01/02 01:49:22;;;;;;;62.95;30.10;;;16.00;65.60;;;;;;4974260;28;20038;-81
2023/01/02 01:51:54;;;;;;;73.97;31.70;;;16.20;65.30;;;;;;4974479;28;20032;-79
2023/01/02 01:54:29;;;;;;;76.93;31.65;;;16.30;64.90;;;;;;4974254;28;20027;-82
2023/01/02 01:57:03;;;;;;;63.72;29.92;;;16.30;64.80;;;;;;4989090;28;20113;-82
2023/01/02 01:59:29;;;;;;;76.10;31.63;;;16.50;64.20;;;;;;4973236;28;20537;-81
2023/01/02 02:01:56;;;;;;;81.28;32.90;;;16.70;63.80;;;;;;4972814;28;20023;-80
2023/01/02 02:04:25;;;;;;;72.93;30.38;;;16.70;64.10;;;;;;4972993;28;20041;-81
2023/01/02 02:06:51;;;;;;;73.05;31.90;;;16.80;63.20;;;;;;4989101;28;20031;-82
2023/01/02 02:09:44;;;;;;;65.88;28.88;;;16.80;63.60;;;;;;4991538;28;20033;-82
2023/01/02 02:12:11;;;;;;;74.38;30.88;;;16.80;63.70;;;;;;4946990;28;20031;-81
2023/01/02 02:14:37;;;;;;;74.28;31.67;;;16.90;63.10;;;;;;4975478;28;20054;-81
2023/01/02 02:17:21;;;;;;;77.38;32.45;;;16.90;63.10;;;;;;4977721;28;20114;-82
2023/01/02 02:20:05;;;;;;;85.72;34.60;;;16.90;63.40;;;;;;4977310;28;20540;-80
2023/01/02 02:22:52;;;;;;;83.63;33.10;;;16.80;63.80;;;;;;4976443;28;20097;-80
2023/01/02 02:25:36;;;;;;;79.47;34.13;;;16.80;63.70;;;;;;4975893;28;20470;-82
2023/01/02 02:28:33;;;;;;;77.65;32.58;;;16.80;63.80;;;;;;4975554;28;20062;-79
2023/01/02 02:31:13;;;;;;;72.15;31.38;;;16.80;63.70;;;;;;4967641;28;20089;-80
2023/01/02 02:33:54;;;;;;;67.57;29.77;;;16.80;63.70;;;;;;4991755;28;20026;-83
2023/01/02 02:36:33;;;;;;;79.30;32.63;;;16.70;63.90;;;;;;4976414;28;20510;-79
2023/01/02 02:39:13;;;;;;;83.47;34.45;;;16.70;64.00;;;;;;4973973;28;20054;-81
2023/01/02 02:41:55;;;;;;;90.90;33.72;;;16.70;64.10;;;;;;4975517;28;20019;-80
2023/01/02 02:44:40;;;;;;;81.43;32.92;;;16.90;63.40;;;;;;4975592;28;20042;-79
2023/01/02 02:47:27;;;;;;;84.35;32.67;;;16.80;64.30;;;;;;4975297;28;20019;-82
2023/01/02 02:49:58;;;;;;;97.43;35.95;;;16.60;63.90;;;;;;4974578;28;20042;-80
2023/01/02 02:52:35;;;;;;;98.60;35.25;;;16.10;65.40;;;;;;4976347;28;20035;-81
2023/01/02 02:55:42;;;;;;;92.45;34.67;;;15.90;66.00;;;;;;4959204;28;20401;-81
2023/01/02 02:58:09;;;;;;;89.20;33.42;;;15.60;67.40;;;;;;4963529;28;20035;-79
2023/01/02 03:00:35;;;;;;;90.50;34.22;;;15.80;66.50;;;;;;4991465;28;20027;-80
2023/01/02 03:03:00;;;;;;;106.28;36.88;;;15.90;66.70;;;;;;4976435;28;20045;-81
2023/01/02 03:05:39;;;;;;;94.40;35.63;;;16.20;65.90;;;;;;4990930;28;20030;-81
2023/01/02 03:08:11;;;;;;;80.57;33.22;;;16.60;64.70;;;;;;4975017;28;20039;-79
2023/01/02 03:10:55;;;;;;;88.70;34.05;;;16.60;65.10;;;;;;4974161;28;20370;-79
2023/01/02 03:13:49;;;;;;;94.32;35.78;;;16.00;66.70;;;;;;4975916;28;20081;-81
2023/01/02 03:16:38;;;;;;;97.10;35.92;;;15.90;66.80;;;;;;4976937;28;20041;-82
2023/01/02 03:19:16;;;;;;;99.50;38.95;;;16.10;66.30;;;;;;4974518;28;20023;-80
2023/01/02 03:21:59;;;;;;;89.90;36.72;;;16.30;66.00;;;;;;4975099;28;20105;-80
2023/01/02 03:24:26;;;;;;;89.18;35.17;;;16.40;66.20;;;;;;4975385;28;20039;-81
2023/01/02 03:26:57;;;;;;;116.07;42.95;;;16.50;65.70;;;;;;4976570;28;20023;-80
2023/01/02 03:29:32;;;;;;;115.95;41.92;;;16.60;65.60;;;;;;4965009;28;20039;-83
2023/01/02 03:32:01;;;;;;;135.13;43.17;;;16.70;65.10;;;;;;4957847;28;20023;-80
2023/01/02 03:34:32;;;;;;;95.68;36.65;;;16.80;65.10;;;;;;4957641;28;20079;-81
2023/01/02 03:37:00;;;;;;;;;;;16.90;64.70;;;;;;4972517;28;20486;-79
2023/01/02 03:39:29;;;;;;;95.07;36.58;;;16.90;64.10;;;;;;4980704;28;19913;-81
2023/01/02 03:41:59;;;;;;;96.53;39.45;;;16.80;64.80;;;;;;4956016;29;20066;-80
2023/01/02 03:44:43;;;;;;;102.88;36.90;;;16.90;64.80;;;;;;4956743;28;20549;-80
2023/01/02 03:47:40;;;;;;;79.05;34.47;;;16.70;64.80;;;;;;4955468;29;20019;-80
2023/01/02 03:50:28;;;;;;;157.15;41.75;;;16.60;65.50;;;;;;4955374;28;20027;-81
2023/01/02 03:52:54;;;;;;;125.85;40.35;;;16.70;65.40;;;;;;4971592;28;20498;-80
2023/01/02 03:55:24;;;;;;;146.40;42.08;;;16.70;65.40;;;;;;4969974;28;20037;-79
2023/01/02 03:58:25;;;;;;;154.07;41.83;;;16.80;65.20;;;;;;4976343;28;20015;-81
2023/01/02 04:00:55;;;;;;;155.25;43.35;;;16.80;65.00;;;;;;4975865;28;20026;-80
2023/01/02 04:03:30;;;;;;;158.63;42.53;;;16.80;65.10;;;;;;4975850;28;20026;-80
2023/01/02 04:06:18;;;;;;;150.27;43.72;;;16.80;65.10;;;;;;4974134;28;20027;-81
2023/01/02 04:08:59;;;;;;;154.30;44.15;;;16.80;65.10;;;;;;4974431;28;20105;-80
2023/01/02 04:11:27;;;;;;;153.18;44.50;;;16.80;64.80;;;;;;4974273;28;20042;-79
2023/01/02 04:13:59;;;;;;;145.38;44.85;;;16.70;64.60;;;;;;4973840;28;20033;-80
2023/01/02 04:16:29;;;;;;;156.93;44.30;;;16.70;65.00;;;;;;4974284;28;20018;-80
2023/01/02 04:19:17;;;;;;;;;;;16.60;65.30;;;;;;4974827;28;20031;-79
2023/01/02 04:21:47;;;;;;;190.80;48.50;;;16.30;66.60;;;;;;4974061;28;19909;-80
2023/01/02 04:24:32;;;;;;;174.55;49.17;;;15.80;67.40;;;;;;4975580;28;20025;-80
2023/01/02 04:27:13;;;;;;;155.90;46.10;;;15.50;68.70;;;;;;4975014;28;20085;-79
2023/01/02 04:29:39;;;;;;;222.27;52.47;;;15.60;68.80;;;;;;4975270;28;20039;-81
2023/01/02 04:32:30;;;;;;;192.85;50.47;;;15.70;68.50;;;;;;4973534;28;20054;-79
2023/01/02 04:34:59;;;;;;;193.75;49.50;;;16.00;67.60;;;;;;4964267;28;20023;-79
2023/01/02 04:37:37;;;;;;;271.63;56.45;;;16.00;67.60;;;;;;4987999;28;20014;-80
2023/01/02 04:40:29;;;;;;;165.77;49.42;;;16.10;67.50;;;;;;4975034;28;20085;-79
2023/01/02 04:42:56;;;;;;;151.18;46.58;;;16.10;67.20;;;;;;4973989;28;20421;-80
2023/01/02 04:45:22;;;;;;;167.48;49.40;;;15.90;68.00;;;;;;4975039;28;20481;-80
2023/01/02 04:47:48;;;;;;;200.38;54.60;;;15.80;67.90;;;;;;4974733;28;20035;-80
2023/01/02 04:50:14;;;;;;;163.27;48.45;;;15.80;68.10;;;;;;4975279;28;20451;-81
2023/01/02 04:52:40;;;;;;;193.10;48.80;;;15.80;68.30;;;;;;4974525;28;20524;-79
2023/01/02 04:55:08;;;;;;;182.02;49.65;;;15.80;68.10;;;;;;4972734;28;20022;-79
2023/01/02 04:57:34;;;;;;;185.25;48.47;;;15.80;68.40;;;;;;4971849;28;20480;-80
2023/01/02 05:00:00;;;;;;;149.90;46.95;;;15.90;68.10;;;;;;4972280;28;20031;-79
2023/01/02 05:02:26;;;;;;;176.25;48.42;;;16.00;68.00;;;;;;4975059;28;20021;-80
2023/01/02 05:04:51;;;;;;;146.80;46.20;;;16.30;67.30;;;;;;4989067;28;20041;-80
2023/01/02 05:07:18;;;;;;;136.00;42.72;;;16.30;67.40;;;;;;4988308;28;20047;-80
2023/01/02 05:09:44;;;;;;;182.68;46.90;;;16.30;67.00;;;;;;4974842;28;20026;-80
2023/01/02 05:12:09;;;;;;;155.00;45.65;;;16.30;66.80;;;;;;4973186;28;20109;-80
2023/01/02 05:14:35;;;;;;;180.88;47.13;;;16.30;67.70;;;;;;4974772;28;20057;-80
2023/01/02 05:17:01;;;;;;;158.18;46.28;;;16.30;67.00;;;;;;4972698;28;20015;-80
2023/01/02 05:19:26;;;;;;;109.38;41.50;;;16.40;66.80;;;;;;4974666;28;20030;-79
2023/01/02 05:24:36;;;;;;;170.10;47.53;;;16.60;66.10;;;;;;4974838;28;20029;-79
2023/01/02 05:27:01;;;;;;;209.00;55.65;;;16.50;66.70;;;;;;4989500;28;20018;-79
2023/01/02 05:29:28;;;;;;;142.25;45.60;;;16.50;66.80;;;;;;4974470;28;20023;-80
2023/01/02 05:31:54;;;;;;;169.85;49.70;;;16.50;66.70;;;;;;4988484;28;20168;-79
2023/01/02 05:34:19;;;;;;;136.68;45.65;;;16.50;66.60;;;;;;4989459;28;20467;-79
2023/01/02 05:36:45;;;;;;;172.75;47.80;;;16.60;66.70;;;;;;4973083;28;20454;-81
2023/01/02 05:39:13;;;;;;;208.30;51.78;;;16.70;66.50;;;;;;4954890;28;20031;-79
2023/01/02 05:41:39;;;;;;;152.05;45.67;;;16.70;66.20;;;;;;4969222;28;20074;-81
2023/01/02 05:44:09;;;;;;;162.40;45.15;;;16.60;66.00;;;;;;4969558;28;20054;-79
2023/01/02 05:46:36;;;;;;;123.57;41.70;;;16.40;66.40;;;;;;4985480;28;20029;-79
2023/01/02 05:49:06;;;;;;;175.93;45.65;;;16.50;66.10;;;;;;4972970;28;20303;-80
2023/01/02 05:51:31;;;;;;;137.65;44.55;;;16.40;66.40;;;;;;4973270;28;20366;-80
2023/01/02 05:53:57;;;;;;;140.70;44.50;;;16.20;67.20;;;;;;4973046;28;20466;-79
2023/01/02 05:56:24;;;;;;;139.05;43.97;;;15.90;68.40;;;;;;4974443;28;20023;-79
2023/01/02 05:58:50;;;;;;;148.63;44.83;;;15.90;68.30;;;;;;4973253;28;20019;-79
2023/01/02 06:01:18;;;;;;;125.20;43.78;;;16.00;68.30;;;;;;4972710;28;20023;-80
2023/01/02 06:03:48;;;;;;;133.95;43.10;;;16.20;67.20;;;;;;4974013;28;20023;-79
2023/01/02 06:06:15;;;;;;;141.18;43.50;;;16.40;66.70;;;;;;4970360;28;20019;-79
2023/01/02 06:08:41;;;;;;;137.52;42.85;;;16.40;66.70;;;;;;4968738;28;20486;-77
2023/01/02 06:11:07;;;;;;;137.25;42.78;;;16.40;67.50;;;;;;4966678;28;20023;-78
2023/01/02 06:13:35;;;;;;;249.05;53.42;;;16.50;66.70;;;;;;4973864;28;20038;-79
2023/01/02 06:16:02;;;;;;;123.68;42.13;;;16.40;66.70;;;;;;4974280;28;20025;-79
2023/01/02 06:18:29;;;;;;;150.80;43.60;;;16.30;67.00;;;;;;4972548;28;20023;-81
2023/01/02 06:21:04;;;;;;;146.48;44.88;;;16.40;66.80;;;;;;4973771;28;20033;-81
2023/01/02 06:23:30;;;;;;;145.57;45.03;;;16.40;66.70;;;;;;4973041;28;20023;-79
2023/01/02 06:26:01;;;;;;;136.98;45.95;;;16.40;66.20;;;;;;4973611;28;20696;-80
2023/01/02 06:28:27;;;;;;;164.77;46.35;;;16.40;66.60;;;;;;4973869;28;20092;-81
2023/01/02 06:30:58;;;;;;;134.55;43.75;;;16.40;66.60;;;;;;4973799;28;20462;-81
2023/01/02 06:33:24;;;;;;;246.85;50.65;;;16.40;66.50;;;;;;4972627;28;20022;-80
2023/01/02 06:35:59;;;;;;;119.13;42.05;;;16.50;66.10;;;;;;4973956;28;20161;-79
2023/01/02 06:38:25;;;;;;;274.85;51.45;;;16.50;66.20;;;;;;4973410;28;20023;-80
2023/01/02 06:40:55;;;;;;;180.55;46.83;;;16.40;66.40;;;;;;4988652;28;20099;-82
2023/01/02 06:43:21;;;;;;;199.15;47.95;;;16.30;66.50;;;;;;4988638;28;20085;-81
2023/01/02 06:45:47;;;;;;;154.57;48.45;;;16.20;67.10;;;;;;4973342;28;20023;-79
2023/01/02 06:48:13;;;;;;;144.90;42.65;;;16.30;66.90;;;;;;4971417;28;20045;-80
2023/01/02 06:50:38;;;;;;;165.43;44.85;;;16.30;66.00;;;;;;4986442;28;20118;-80
2023/01/02 06:53:04;;;;;;;187.40;48.35;;;16.10;67.10;;;;;;4971551;28;20045;-79
2023/01/02 06:55:30;;;;;;;139.52;41.35;;;16.10;67.10;;;;;;4975544;28;20412;-79
2023/01/02 06:57:56;;;;;;;136.95;44.25;;;16.10;67.10;;;;;;4990322;28;20448;-79
2023/01/02 07:00:21;;;;;;;157.18;48.40;;;16.00;66.80;;;;;;4976845;28;20502;-80
2023/01/02 07:02:47;;;;;;;124.88;45.28;;;15.50;68.90;;;;;;4972385;28;20027;-81
2023/01/02 07:05:13;;;;;;;144.57;47.53;;;15.40;68.40;;;;;;4956348;29;20034;-79
2023/01/02 07:07:39;;;;;;;122.00;43.75;;;15.30;69.70;;;;;;4957466;29;20074;-79
2023/01/02 07:10:05;;;;;;;231.98;52.15;;;15.50;69.10;;;;;;4956933;28;20023;-80
2023/01/02 07:12:35;;;;;;;190.25;53.58;;;15.20;69.40;;;;;;4957337;28;20023;-80
2023/01/02 07:15:00;;;;;;;209.27;49.95;;;15.20;70.10;;;;;;4956132;29;20062;-80
2023/01/02 07:17:26;;;;;;;152.52;46.42;;;15.10;69.90;;;;;;4955655;29;20024;-80
2023/01/02 07:19:52;;;;;;;166.07;46.72;;;15.10;70.90;;;;;;4979425;28;20031;-77
2023/01/02 07:22:17;;;;;;;150.93;46.35;;;15.40;70.00;;;;;;4957220;29;20019;-79
2023/01/02 07:24:43;;;;;;;155.35;45.90;;;15.70;68.50;;;;;;4956683;28;20042;-80
2023/01/02 07:27:09;;;;;;;153.15;46.72;;;15.60;68.70;;;;;;4971712;28;20030;-79
2023/01/02 07:29:34;;;;;;;130.90;45.03;;;15.70;68.60;;;;;;4972626;28;20027;-80
2023/01/02 07:32:00;;;;;;;195.80;51.03;;;15.80;67.90;;;;;;4956865;28;20027;-81
2023/01/02 07:34:26;;;;;;;149.60;45.60;;;15.80;68.10;;;;;;4956013;29;20025;-79
2023/01/02 07:36:51;;;;;;;201.85;50.60;;;16.00;67.30;;;;;;4966661;28;20038;-84
2023/01/02 07:39:17;;;;;;;128.18;44.08;;;15.90;67.60;;;;;;4975196;28;20078;-81
2023/01/02 07:41:43;;;;;;;150.45;46.30;;;16.00;66.80;;;;;;4975713;28;20027;-81
2023/01/02 07:44:08;;;;;;;173.75;46.55;;;16.20;67.40;;;;;;4991374;28;20088;-80
2023/01/02 07:46:34;;;;;;;125.97;43.70;;;16.40;66.10;;;;;;4976044;28;20118;-80
2023/01/02 07:48:59;;;;;;;140.48;46.22;;;16.50;66.20;;;;;;4975332;28;20088;-80
2023/01/02 07:51:25;;;;;;;140.20;44.63;;;16.40;66.80;;;;;;4976132;28;20547;-76
2023/01/02 07:53:51;;;;;;;147.73;46.75;;;16.40;66.70;;;;;;4974972;28;20034;-79
2023/01/02 07:56:24;;;;;;;153.00;46.47;;;16.50;66.10;;;;;;4992082;28;20367;-78
2023/01/02 07:58:50;;;;;;;136.25;45.67;;;16.60;66.00;;;;;;4973167;28;20030;-79
2023/01/02 08:01:16;;;;;;;146.27;45.70;;;16.60;66.20;;;;;;4974236;28;20034;-78
2023/01/02 08:03:41;;;;;;;140.52;45.45;;;16.40;66.70;;;;;;4959054;28;20031;-78
2023/01/02 08:06:10;;;;;;;156.60;45.77;;;16.10;67.10;;;;;;4615491;28;9999832;-78
2023/01/02 08:08:36;;;;;;;141.10;47.75;;;16.20;66.90;;;;;;4972290;28;20292;-77
2023/01/02 08:11:07;;;;;;;142.25;49.60;;;16.10;67.30;;;;;;4971755;28;20031;-78
2023/01/02 08:13:34;;;;;;;163.40;52.20;;;16.30;66.70;;;;;;4973361;28;20062;-79
2023/01/02 08:16:08;;;;;;;144.80;47.33;;;16.40;66.20;;;;;;4972990;28;20039;-81
2023/01/02 08:18:34;;;;;;;135.27;48.35;;;16.60;65.60;;;;;;4969316;28;20118;-79
2023/01/02 08:21:01;;;;;;;156.40;51.13;;;16.40;65.80;;;;;;4954303;28;20019;-78
2023/01/02 08:23:26;;;;;;;147.27;48.83;;;16.20;66.90;;;;;;4952993;28;20031;-80
2023/01/02 08:25:55;;;;;;;135.93;52.53;;;16.10;67.00;;;;;;4953102;29;20059;-79
2023/01/02 08:28:21;;;;;;;198.25;78.32;;;16.20;67.00;;;;;;4967540;28;20027;-79
2023/01/02 08:30:47;;;;;;;151.60;49.30;;;16.10;66.70;;;;;;4984156;28;20035;-81
2023/01/02 08:33:12;;;;;;;122.10;43.90;;;16.20;66.30;;;;;;4972835;28;20117;-78
2023/01/02 08:35:39;;;;;;;151.13;48.22;;;16.00;67.20;;;;;;4961231;28;20027;-81
2023/01/02 08:38:05;;;;;;;138.27;45.38;;;16.10;66.80;;;;;;4953488;28;20058;-82
2023/01/02 08:40:31;;;;;;;178.25;49.85;;;15.90;66.90;;;;;;4969068;28;20059;-79
2023/01/02 08:42:56;;;;;;;148.68;48.08;;;15.30;69.10;;;;;;4961527;28;20105;-79
2023/01/02 08:45:22;;;;;;;158.20;48.95;;;15.20;69.70;;;;;;4963486;28;20090;-79
2023/01/02 08:47:48;;;;;;;141.23;47.47;;;15.50;69.20;;;;;;4969138;28;20034;-79
2023/01/02 08:50:13;;;;;;;126.93;45.13;;;15.70;68.20;;;;;;4986452;28;20066;-79
2023/01/02 08:52:39;;;;;;;125.43;43.05;;;15.80;67.60;;;;;;4955424;28;20122;-78
2023/01/02 08:55:05;;;;;;;136.43;45.30;;;15.70;67.20;;;;;;4952677;29;20399;-78
2023/01/02 08:57:31;;;;;;;125.35;43.42;;;15.20;68.40;;;;;;4955960;28;20031;-78
2023/01/02 08:59:57;;;;;;;109.60;42.13;;;14.90;69.30;;;;;;4979674;28;20072;-78
2023/01/02 09:02:23;;;;;;;103.90;41.47;;;14.80;70.00;;;;;;4967050;28;20023;-80
2023/01/02 09:04:49;;;;;;;123.78;47.33;;;14.80;69.80;;;;;;4971944;28;20078;-82
2023/01/02 09:07:14;;;;;;;100.75;43.10;;;15.10;69.60;;;;;;4971865;28;20027;-79
2023/01/02 09:09:40;;;;;;;98.10;42.25;;;15.30;67.90;;;;;;4987952;28;20049;-78
2023/01/02 09:12:06;;;;;;;109.07;43.63;;;15.30;69.00;;;;;;4978413;28;20023;-80
2023/01/02 09:14:32;;;;;;;101.63;42.35;;;15.60;67.80;;;;;;4985351;28;20030;-78
2023/01/02 09:16:58;;;;;;;96.80;42.15;;;15.50;68.40;;;;;;4972783;28;20089;-78
2023/01/02 09:19:28;;;;;;;107.35;44.25;;;15.40;68.90;;;;;;4973471;28;20022;-77
2023/01/02 09:21:54;;;;;;;131.18;48.72;;;15.50;68.40;;;;;;4973126;28;20553;-80
2023/01/02 09:24:20;;;;;;;123.68;45.97;;;15.90;67.30;;;;;;4973226;28;20066;-79
2023/01/02 09:26:46;;;;;;;130.65;48.03;;;16.10;67.40;;;;;;4987584;28;20026;-80
2023/01/02 09:29:12;;;;;;;105.25;41.45;;;16.30;66.10;;;;;;4988665;28;20042;-78
2023/01/02 09:31:38;;;;;;;123.22;49.42;;;16.50;65.20;;;;;;4970016;28;20027;-78
2023/01/02 09:34:04;;;;;;;126.82;47.15;;;16.40;66.40;;;;;;4960817;28;20025;-79
2023/01/02 09:36:31;;;;;;;102.88;42.78;;;16.20;65.60;;;;;;4988225;28;20019;-81
2023/01/02 09:38:58;;;;;;;119.72;46.15;;;15.80;67.10;;;;;;4970402;28;20122;-79
2023/01/02 09:41:26;;;;;;;107.90;44.92;;;15.70;67.80;;;;;;4984335;28;20015;-79
2023/01/02 09:44:04;;;;;;;92.03;41.72;;;15.70;67.40;;;;;;4971470;28;20038;-78
2023/01/02 09:46:56;;;;;;;96.25;44.60;;;15.70;67.50;;;;;;4961341;28;20015;-78
2023/01/02 09:49:31;;;;;;;93.07;40.88;;;15.60;67.30;;;;;;4982965;28;20034;-78
2023/01/02 09:51:57;;;;;;;102.60;41.25;;;15.50;67.50;;;;;;4986250;28;20054;-77
2023/01/02 09:54:27;;;;;;;;;;;15.40;67.10;;;;;;4621099;28;9999939;-80
2023/01/02 09:57:08;;;;;;;112.47;45.30;;;15.50;67.60;;;;;;4965417;28;19960;-79
2023/01/02 09:59:53;;;;;;;100.10;40.55;;;15.50;68.20;;;;;;4979705;28;20035;-79
2023/01/02 10:02:47;;;;;;;89.25;41.55;;;15.70;67.60;;;;;;4956062;28;20031;-78
2023/01/02 10:05:37;;;;;;;82.97;38.97;;;15.80;65.90;;;;;;4955209;28;20031;-80
2023/01/02 10:08:36;;;;;;;82.72;37.25;;;15.80;67.70;;;;;;4974775;28;20174;-79
2023/01/02 10:11:27;;;;;;;96.93;42.15;;;15.90;67.20;;;;;;4965099;28;20359;-79
2023/01/02 10:14:08;;;;;;;96.18;42.05;;;16.30;66.80;;;;;;4959279;28;20406;-79
2023/01/02 10:16:47;;;;;;;84.15;40.35;;;16.70;65.20;;;;;;4967401;28;20117;-79
2023/01/02 10:19:35;;;;;;;98.40;44.60;;;16.70;64.90;;;;;;4956178;28;20026;-78
2023/01/02 10:22:02;;;;;;;76.03;36.30;;;16.70;65.10;;;;;;4969462;28;20069;-81
2023/01/02 10:24:56;;;;;;;77.65;37.97;;;16.60;64.90;;;;;;4969050;28;20019;-78
2023/01/02 10:27:29;;;;;;;82.57;39.05;;;15.90;65.90;;;;;;4954754;28;20035;-78
2023/01/02 10:30:19;;;;;;;104.78;43.97;;;15.50;68.00;;;;;;4964328;28;20034;-81
2023/01/02 10:32:57;;;;;;;96.97;43.63;;;15.80;67.20;;;;;;4968850;28;20470;-77
2023/01/02 10:35:46;;;;;;;81.75;38.15;;;16.10;66.70;;;;;;4965003;28;20046;-78
2023/01/02 10:38:17;;;;;;;85.15;40.35;;;16.40;65.60;;;;;;4968672;28;20023;-78
2023/01/02 10:40:45;;;;;;;86.35;40.83;;;16.40;66.30;;;;;;4963978;28;20027;-78
2023/01/02 10:43:11;;;;;;;83.88;40.20;;;16.50;65.60;;;;;;4967351;28;20489;-79
2023/01/02 10:45:37;;;;;;;78.07;38.03;;;16.70;65.40;;;;;;4970645;28;20117;-79
2023/01/02 10:48:03;;;;;;;80.22;39.20;;;16.50;65.60;;;;;;4971479;28;20073;-78
2023/01/02 10:50:37;;;;;;;81.82;40.47;;;16.00;66.00;;;;;;4972284;28;20027;-77
2023/01/02 10:53:17;;;;;;;96.00;40.67;;;15.60;67.80;;;;;;4969434;28;20045;-77
2023/01/02 10:55:44;;;;;;;82.35;38.22;;;15.80;67.50;;;;;;4989111;28;20042;-78
2023/01/02 10:58:25;;;;;;;97.65;45.70;;;16.10;66.60;;;;;;4976755;28;20030;-78
2023/01/02 11:01:17;;;;;;;239.43;214.20;;;16.20;66.20;;;;;;4981014;28;20022;-79
2023/01/02 11:03:43;;;;;;;94.72;45.40;;;15.90;66.80;;;;;;4983867;28;20031;-80
2023/01/02 11:06:28;;;;;;;93.78;41.85;;;15.90;67.40;;;;;;4971423;28;20023;-79
2023/01/02 11:09:14;;;;;;;96.22;44.90;;;16.30;66.30;;;;;;4987596;28;20549;-80
2023/01/02 11:11:48;;;;;;;99.72;43.08;;;15.80;68.00;;;;;;4966785;28;20365;-78
2023/01/02 11:14:14;;;;;;;100.75;43.47;;;15.80;68.10;;;;;;4967384;28;20019;-78
2023/01/02 11:16:40;;;;;;;115.43;43.05;;;16.20;67.30;;;;;;4972400;28;20030;-78
2023/01/02 11:19:22;;;;;;;89.55;39.40;;;16.70;65.50;;;;;;4966105;28;20054;-78
2023/01/02 11:21:51;;;;;;;102.32;41.35;;;16.80;65.00;;;;;;4977722;28;20031;-79
2023/01/02 11:24:24;;;;;;;83.22;37.10;;;16.80;65.40;;;;;;4973943;28;20053;-78
2023/01/02 11:26:51;;;;;;;94.55;40.60;;;17.00;64.70;;;;;;4975504;28;20015;-78
2023/01/02 11:29:21;;;;;;;89.68;42.40;;;16.80;65.40;;;;;;4965471;28;20042;-79
2023/01/02 11:31:50;;;;;;;111.05;44.53;;;16.60;65.80;;;;;;4962375;28;20034;-77
2023/01/02 11:34:26;;;;;;;107.75;45.15;;;16.30;66.40;;;;;;4985163;28;20033;-79
2023/01/02 11:37:15;;;;;;;95.03;39.00;;;16.40;66.50;;;;;;4986702;28;20635;-78
2023/01/02 11:39:41;;;;;;;103.35;40.28;;;16.20;67.20;;;;;;4983630;28;20103;-84
2023/01/02 11:45:08;;;;;;;107.57;38.97;;;16.00;67.90;;;;;;4966907;28;20151;-79
2023/01/02 11:47:42;;;;;;;113.30;40.83;;;16.30;66.90;;;;;;4970299;28;20023;-80
2023/01/02 11:50:22;;;;;;;82.22;36.50;;;16.70;66.20;;;;;;4983740;28;20054;-81
2023/01/02 11:52:53;;;;;;;;;;;17.00;64.90;;;;;;4976671;28;20470;-81
2023/01/02 11:55:27;;;;;;;;;;;17.10;64.90;;;;;;4973383;28;19914;-82
2023/01/02 11:58:13;;;;;;;89.85;35.85;;;17.30;64.20;;;;;;4988635;28;19931;-78
2023/01/02 12:00:42;;;;;;;75.47;35.03;;;17.40;64.30;;;;;;4971167;28;20445;-81
2023/01/02 12:03:23;;;;;;;94.53;39.67;;;17.40;64.00;;;;;;4967875;28;20043;-77
2023/01/02 12:05:58;;;;;;;117.28;47.00;;;17.40;64.20;;;;;;4971734;28;20026;-78
2023/01/02 12:08:54;;;;;;;101.53;44.45;;;17.50;64.00;;;;;;4964877;28;20062;-80
2023/01/02 12:11:47;;;;;;;130.32;52.72;;;17.50;63.00;;;;;;4971299;28;20105;-80
2023/01/02 12:14:21;;;;;;;147.39;61.81;;;17.00;64.50;;;;;;4626110;28;10000733;-77
2023/01/02 12:17:06;;;;;;;122.30;53.85;;;16.60;65.90;;;;;;4975434;28;20386;-77
2023/01/02 12:19:47;;;;;;;82.05;39.17;;;16.50;65.90;;;;;;4969281;28;20023;-78
2023/01/02 12:22:43;;;;;;;77.75;39.38;;;16.70;65.90;;;;;;4973543;28;20552;-78
2023/01/02 12:25:32;;;;;;;121.55;51.95;;;17.00;65.40;;;;;;4625060;28;10000520;-79
2023/01/02 12:28:44;;;;;;;109.88;48.28;;;17.20;64.30;;;;;;4971201;28;20038;-77
2023/01/02 12:31:28;;;;;;;89.22;40.33;;;17.20;64.10;;;;;;4890833;29;20241;-80
2023/01/02 12:33:54;;;;;;;139.63;60.97;;;17.40;64.00;;;;;;4886497;29;20071;-81
2023/01/02 12:36:22;;;;;;;150.30;65.88;;;17.40;63.60;;;;;;4889918;29;20053;-78
2023/01/02 12:39:17;;;;;;;129.32;57.28;;;17.50;63.60;;;;;;4889877;29;20119;-80
2023/01/02 12:41:58;;;;;;;123.13;57.88;;;17.50;63.80;;;;;;4889373;29;20044;-77
2023/01/02 12:44:29;;;;;;;;;;;17.60;63.50;;;;;;4875171;29;20135;-78
2023/01/02 12:47:13;;;;;;;86.05;41.17;;;17.50;63.60;;;;;;4891174;29;19915;-79
2023/01/02 12:49:47;;;;;;;79.32;38.28;;;17.60;63.10;;;;;;4891996;29;20444;-78
2023/01/02 12:52:43;;;;;;;87.20;39.58;;;17.60;63.20;;;;;;4892419;29;20737;-78